Time;durP1;ratioP1;P1;durP2;ratioP2;P2;SDS_P1;SDS_P2;PMS_P1;PMS_P2;Temp;Humidity;BMP_temperature;BMP_pressure;BME280_temperature;BME280_humidity;BME280_pressure;Samples;Min_cycle;Max_cycle;Signal;HPM_P1;HPM_P2
2021/05/14 00:02:11;;;;;;;29.63;16.62;;;;;;;12.77;73.56;100350.05;1774580;80;21434;-68
2021/05/14 00:04:38;;;;;;;28.05;14.95;;;;;;;12.72;73.83;100341.19;1774473;80;20890;-68
2021/05/14 00:07:04;;;;;;;24.55;13.68;;;;;;;12.71;73.93;100346.06;1774546;80;21786;-68
2021/05/14 00:09:31;;;;;;;28.90;14.80;;;;;;;12.70;73.96;100343.57;1774542;80;21591;-68
2021/05/14 00:12:00;;;;;;;29.52;14.33;;;;;;;12.69;74.24;100345.34;1774544;80;20910;-68
2021/05/14 00:14:27;;;;;;;20.17;13.78;;;;;;;12.69;74.29;100340.08;1774550;80;20899;-68
2021/05/14 00:16:54;;;;;;;20.52;13.85;;;;;;;12.67;74.05;100342.46;1774601;80;20961;-69
2021/05/14 00:19:20;;;;;;;21.57;14.68;;;;;;;12.61;74.04;100339.34;1774513;80;21690;-68
2021/05/14 00:21:47;;;;;;;22.32;13.78;;;;;;;12.59;74.10;100332.03;1774544;80;20899;-69
2021/05/14 00:24:14;;;;;;;21.23;12.75;;;;;;;12.57;74.03;100329.98;1774606;80;20947;-69
2021/05/14 00:26:41;;;;;;;23.57;13.43;;;;;;;12.54;74.10;100329.36;1774540;80;21494;-68
2021/05/14 00:29:09;;;;;;;23.02;12.70;;;;;;;12.51;74.07;100328.28;1774661;80;20878;-69
2021/05/14 00:31:35;;;;;;;25.43;12.82;;;;;;;12.47;74.23;100317.61;1774573;80;21080;-70
2021/05/14 00:34:03;;;;;;;20.92;12.70;;;;;;;12.47;74.06;100311.03;1774437;80;21498;-69
2021/05/14 00:36:30;;;;;;;21.25;13.22;;;;;;;12.47;74.17;100310.55;1774524;80;20863;-68
2021/05/14 00:38:56;;;;;;;22.15;11.88;;;;;;;12.48;74.18;100310.94;1774536;80;20914;-69
2021/05/14 00:41:25;;;;;;;20.30;11.97;;;;;;;12.46;74.12;100303.62;1774537;80;20923;-69
2021/05/14 00:43:52;;;;;;;24.47;12.45;;;;;;;12.45;74.05;100305.91;1774576;80;21091;-69
2021/05/14 00:46:19;;;;;;;19.45;11.05;;;;;;;12.40;74.14;100296.17;1774416;80;20902;-69
2021/05/14 00:48:46;;;;;;;17.12;10.05;;;;;;;12.37;74.23;100291.98;1774610;80;21083;-70
2021/05/14 00:51:13;;;;;;;16.60;10.63;;;;;;;12.33;74.43;100287.89;1774504;80;21415;-70
2021/05/14 00:53:40;;;;;;;16.93;9.78;;;;;;;12.31;74.72;100282.39;1774573;80;20902;-69
2021/05/14 00:56:07;;;;;;;20.72;10.80;;;;;;;12.28;74.77;100279.52;1774381;80;21936;-68
2021/05/14 00:58:34;;;;;;;23.50;12.35;;;;;;;12.28;75.26;100279.52;1743775;80;20907;-69
2021/05/14 01:01:01;;;;;;;25.85;11.33;;;;;;;12.34;75.33;100276.89;1774513;80;20974;-69
2021/05/14 01:03:28;;;;;;;19.30;11.63;;;;;;;12.38;75.24;100273.09;1774452;80;20866;-69
2021/05/14 01:05:56;;;;;;;18.30;11.48;;;;;;;12.40;74.99;100272.03;1774560;80;20926;-70
2021/05/14 01:08:23;;;;;;;21.62;12.53;;;;;;;12.38;74.75;100269.16;1774357;80;21092;-70
2021/05/14 01:10:52;;;;;;;22.45;13.95;;;;;;;12.37;74.62;100270.12;1774388;80;21416;-70
2021/05/14 01:13:25;;;;;;;24.32;11.73;;;;;;;12.31;74.32;100268.77;1774479;80;20918;-70
2021/05/14 01:15:53;;;;;;;19.48;11.73;;;;;;;12.21;74.47;100260.72;1774761;80;21056;-69
2021/05/14 01:18:19;;;;;;;20.50;11.93;;;;;;;12.21;74.75;100267.77;1774395;80;20875;-72
2021/05/14 01:21:57;;;;;;;19.95;11.15;;;;;;;12.24;75.09;100260.48;1776641;79;22552;-69
2021/05/14 01:24:24;;;;;;;15.50;10.93;;;;;;;12.20;75.22;100257.70;1749324;80;20974;-69
2021/05/14 01:26:51;;;;;;;20.02;11.18;;;;;;;12.19;75.37;100256.05;1749295;82;21071;-69
2021/05/14 01:29:18;;;;;;;18.05;11.55;;;;;;;12.20;75.21;100255.56;1749378;80;20855;-68
2021/05/14 01:31:45;;;;;;;17.82;11.03;;;;;;;12.16;75.25;100254.09;1749319;82;20902;-69
2021/05/14 01:34:13;;;;;;;18.00;9.83;;;;;;;12.12;75.54;100255.30;1749263;82;20990;-69
2021/05/14 01:36:40;;;;;;;17.67;11.35;;;;;;;12.11;75.70;100248.34;1749376;82;20958;-68
2021/05/14 01:39:12;;;;;;;18.85;10.43;;;;;;;12.08;75.55;100248.09;1749270;82;21091;-69
2021/05/14 01:41:41;;;;;;;16.27;9.18;;;;;;;12.05;75.76;100252.72;1749404;81;20985;-68
2021/05/14 01:44:08;;;;;;;15.20;9.50;;;;;;;12.01;75.90;100256.06;1749399;80;20875;-70
2021/05/14 01:46:34;;;;;;;17.92;10.53;;;;;;;12.00;76.00;100253.05;1749213;80;20903;-69
2021/05/14 01:49:01;;;;;;;18.55;10.68;;;;;;;11.99;76.00;100246.97;1749408;80;20994;-69
2021/05/14 01:51:28;;;;;;;23.73;11.25;;;;;;;11.97;76.04;100248.86;1749273;82;21074;-69
2021/05/14 01:53:55;;;;;;;18.37;10.45;;;;;;;11.96;76.18;100245.02;1749322;82;20855;-68
2021/05/14 01:56:22;;;;;;;17.05;11.83;;;;;;;11.96;76.14;100246.34;1749410;80;21013;-68
2021/05/14 01:58:49;;;;;;;18.73;12.25;;;;;;;11.93;76.00;100243.46;1749347;82;20902;-69
2021/05/14 02:01:16;;;;;;;18.15;10.60;;;;;;;11.90;75.95;100250.74;1749240;80;20855;-69
2021/05/14 02:03:43;;;;;;;17.12;10.78;;;;;;;11.85;75.99;100253.67;1749286;81;21705;-68
2021/05/14 02:06:10;;;;;;;16.75;11.15;;;;;;;11.80;76.08;100247.88;1749249;82;20981;-68
2021/05/14 02:08:38;;;;;;;17.17;10.70;;;;;;;11.77;76.28;100249.42;1749336;82;20851;-68
2021/05/14 02:11:09;;;;;;;14.68;10.10;;;;;;;11.76;76.43;100247.28;1749113;80;20998;-68
2021/05/14 02:13:34;;;;;;;31.15;13.18;;;;;;;11.75;76.45;100244.27;1749109;82;20910;-68
2021/05/14 02:16:01;;;;;;;14.23;9.85;;;;;;;11.77;76.57;100241.55;1749283;82;21095;-68
2021/05/14 02:18:30;;;;;;;16.12;10.15;;;;;;;11.77;76.42;100235.80;1749457;80;21013;-69
2021/05/14 02:20:57;;;;;;;16.15;10.28;;;;;;;11.79;76.48;100233.91;1743593;80;20922;-69
2021/05/14 02:23:24;;;;;;;17.07;10.40;;;;;;;11.82;76.52;100232.37;1736025;81;20974;-69
2021/05/14 02:25:51;;;;;;;15.98;10.23;;;;;;;11.85;76.60;100237.04;1736149;82;20990;-68
2021/05/14 02:28:17;;;;;;;14.87;11.38;;;;;;;11.87;76.52;100229.89;1736137;82;21408;-69
2021/05/14 02:30:44;;;;;;;17.67;11.70;;;;;;;11.88;76.48;100228.51;1735961;82;20884;-68
2021/05/14 02:33:11;;;;;;;16.30;10.58;;;;;;;11.89;76.44;100221.45;1735600;81;20967;-68
2021/05/14 02:35:38;;;;;;;20.15;11.30;;;;;;;11.88;76.34;100223.25;1735538;82;21010;-69
2021/05/14 02:38:06;;;;;;;15.50;9.83;;;;;;;11.86;76.46;100225.59;1735630;82;21018;-69
2021/05/14 02:40:33;;;;;;;14.35;9.38;;;;;;;11.85;76.57;100220.83;1735587;82;21554;-69
2021/05/14 02:43:00;;;;;;;10.95;8.05;;;;;;;11.84;76.46;100215.19;1735567;82;21009;-69
2021/05/14 02:45:27;;;;;;;17.70;9.70;;;;;;;11.85;76.45;100214.70;1735558;82;20899;-69
2021/05/14 02:47:53;;;;;;;17.07;8.83;;;;;;;11.87;76.37;100215.44;1735550;82;21010;-68
2021/05/14 02:50:20;;;;;;;15.38;8.53;;;;;;;11.91;76.44;100220.88;1735626;81;20986;-69
2021/05/14 02:52:47;;;;;;;15.18;8.98;;;;;;;11.92;76.39;100216.83;1735750;82;21087;-68
2021/05/14 02:55:14;;;;;;;11.75;8.70;;;;;;;11.93;76.38;100213.72;1736257;82;20935;-68
2021/05/14 02:57:43;;;;;;;10.30;7.67;;;;;;;11.96;76.31;100214.80;1737013;82;21014;-69
2021/05/14 03:00:11;;;;;;;18.07;8.50;;;;;;;12.00;76.18;100225.47;1738634;81;21009;-69
2021/05/14 03:02:38;;;;;;;17.87;9.38;;;;;;;12.03;76.09;100221.32;1738803;82;21069;-68
2021/05/14 03:05:07;;;;;;;16.30;7.33;;;;;;;12.05;75.97;100219.42;1738574;82;21686;-70
2021/05/14 03:07:35;;;;;;;15.48;8.20;;;;;;;12.07;75.94;100228.00;1738082;82;20899;-68
2021/05/14 03:10:04;;;;;;;11.93;7.75;;;;;;;12.08;75.89;100227.06;1736446;82;20995;-70
2021/05/14 03:12:31;;;;;;;14.95;8.90;;;;;;;12.10;75.87;100227.80;1735477;81;20963;-70
2021/05/14 03:14:58;;;;;;;17.73;8.45;;;;;;;12.13;75.77;100215.73;1735579;82;21443;-69
2021/05/14 03:17:26;;;;;;;12.95;8.48;;;;;;;12.20;75.88;100217.44;1735460;82;21502;-71
2021/05/14 03:19:54;;;;;;;13.05;8.70;;;;;;;12.26;75.92;100225.37;1735451;82;21130;-70
2021/05/14 03:22:21;;;;;;;12.82;8.40;;;;;;;12.36;76.22;100221.95;1742217;81;20954;-69
2021/05/14 03:24:48;;;;;;;12.60;8.78;;;;;;;12.50;76.00;100220.92;1743646;80;21026;-69
2021/05/14 03:27:14;;;;;;;16.70;8.83;;;;;;;12.60;75.43;100221.89;1743502;82;20875;-70
2021/05/14 03:29:41;;;;;;;14.93;8.40;;;;;;;12.67;75.20;100217.01;1743700;82;21077;-70
2021/05/14 03:32:08;;;;;;;13.53;7.10;;;;;;;12.74;75.24;100223.52;1743621;82;21116;-70
2021/05/14 03:34:35;;;;;;;17.10;8.58;;;;;;;12.79;75.24;100214.78;1743568;82;20878;-69
2021/05/14 03:37:02;;;;;;;14.50;8.50;;;;;;;12.89;75.33;100218.86;1743630;82;21021;-68
2021/05/14 03:39:29;;;;;;;14.80;8.85;;;;;;;12.97;75.27;100220.44;1743722;82;21395;-69
2021/05/14 03:44:32;;;;;;;22.45;10.45;;;;;;;13.12;75.24;100226.33;1743408;82;20978;-70
2021/05/14 03:47:02;;;;;;;12.40;9.23;;;;;;;13.25;74.58;100224.88;1743646;82;20910;-70
2021/05/14 03:49:36;;;;;;;17.20;10.32;;;;;;;13.34;74.29;100216.78;1743642;82;21426;-69
2021/05/14 03:52:09;;;;;;;19.05;10.60;;;;;;;13.46;74.22;100211.39;1743635;82;20935;-69
2021/05/14 03:54:37;;;;;;;22.13;9.60;;;;;;;13.58;73.86;100214.02;1743591;82;21407;-69
2021/05/14 03:57:04;;;;;;;22.20;9.98;;;;;;;13.73;73.58;100214.61;1743653;81;20958;-70
2021/05/14 03:59:31;;;;;;;18.05;9.05;;;;;;;13.87;73.50;100209.05;1743483;82;21526;-70
2021/05/14 04:01:59;;;;;;;17.90;10.35;;;;;;;14.03;73.44;100203.41;1743690;82;21471;-69
2021/05/14 04:04:26;;;;;;;19.92;8.68;;;;;;;14.26;73.30;100206.80;1743580;82;21057;-70
2021/05/14 04:06:53;;;;;;;23.07;10.58;;;;;;;14.49;73.18;100203.56;1743558;82;21104;-70
2021/05/14 04:09:28;;;;;;;21.05;10.20;;;;;;;14.73;72.45;100209.12;1743547;81;21510;-70
2021/05/14 04:12:08;;;;;;;22.55;11.65;;;;;;;15.00;72.26;100204.62;1743468;80;20942;-72
2021/05/14 04:14:30;;;;;;;30.60;10.43;;;;;;;15.88;70.71;100204.49;1740513;82;21435;-68
2021/05/14 04:16:59;;;;;;;26.57;11.05;;;;;;;15.88;70.71;100204.49;1743512;81;20910;-68
2021/05/14 04:19:25;;;;;;;20.48;10.13;;;;;;;16.52;70.01;100211.08;1743554;82;21100;-70
2021/05/14 04:21:57;;;;;;;18.87;10.28;;;;;;;17.11;69.12;100213.97;1739251;82;21023;-70
2021/05/14 04:24:25;;;;;;;23.10;10.30;;;;;;;17.73;67.70;100218.73;1735494;82;20899;-69
2021/05/14 04:26:55;;;;;;;22.02;9.35;;;;;;;18.36;66.32;100216.57;1735483;82;21010;-69
2021/05/14 04:29:22;;;;;;;13.78;7.83;;;;;;;18.95;65.23;100221.72;1735367;82;20954;-69
2021/05/14 04:31:51;;;;;;;8.68;5.72;;;;;;;19.56;63.38;100214.54;1735576;82;21100;-78
2021/05/14 04:34:19;;;;;;;11.97;5.33;;;;;;;20.17;62.17;100217.09;1735572;82;20887;-78
2021/05/14 04:36:47;;;;;;;14.28;4.62;;;;;;;20.76;59.91;100213.77;1735699;82;21348;-80
2021/05/14 04:39:16;;;;;;;13.80;5.12;;;;;;;21.29;58.72;100215.50;1735876;82;20910;-80
2021/05/14 04:41:43;;;;;;;15.78;5.47;;;;;;;21.81;57.06;100208.80;1735711;82;21380;-79
2021/05/14 04:44:14;;;;;;;9.78;4.85;;;;;;;22.20;56.71;100215.91;1735637;81;21474;-80
2021/05/14 04:46:40;;;;;;;13.30;4.28;;;;;;;22.46;55.25;100212.91;1735595;82;21483;-81
2021/05/14 04:49:07;;;;;;;21.07;5.33;;;;;;;22.57;54.66;100212.48;1735422;81;21443;-74
2021/05/14 04:51:34;;;;;;;16.10;4.33;;;;;;;22.67;54.64;100213.55;1735207;82;20955;-72
2021/05/14 04:54:01;;;;;;;8.80;3.87;;;;;;;22.66;54.26;100218.08;1735478;82;20999;-79
2021/05/14 04:56:28;;;;;;;10.70;4.20;;;;;;;22.55;53.82;100214.50;1735849;81;21423;-75
2021/05/14 04:58:55;;;;;;;10.93;4.58;;;;;;;22.31;53.75;100209.67;1713294;82;20871;-76
2021/05/14 05:01:22;;;;;;;7.70;3.90;;;;;;;22.09;54.72;100212.63;1735482;82;20974;-73
2021/05/14 05:03:54;;;;;;;11.83;5.67;;;;;;;21.97;55.32;100216.73;1735746;81;21511;-79
2021/05/14 05:06:24;;;;;;;8.35;4.85;;;;;;;21.93;55.67;100211.41;1735586;82;20982;-77
2021/05/14 05:08:52;;;;;;;8.43;5.08;;;;;;;22.09;55.22;100205.12;1735367;81;23775;-76
2021/05/14 05:11:21;;;;;;;8.70;4.60;;;;;;;22.26;55.03;100196.02;1735333;81;21010;-76
2021/05/14 05:13:47;;;;;;;13.22;5.15;;;;;;;22.44;54.56;100196.23;1735387;82;20890;-77
2021/05/14 05:16:14;;;;;;;8.20;4.45;;;;;;;22.77;54.25;100198.10;1713425;82;21109;-76
2021/05/14 05:18:41;;;;;;;16.15;4.78;;;;;;;23.09;54.63;100195.61;1735440;81;20931;-76
2021/05/14 05:21:08;;;;;;;7.50;4.25;;;;;;;23.46;53.74;100201.05;1736123;81;21050;-74
2021/05/14 05:23:35;;;;;;;8.88;3.87;;;;;;;23.82;51.77;100194.92;1749426;82;21455;-77
2021/05/14 05:26:02;;;;;;;7.53;3.90;;;;;;;24.16;50.39;100200.41;1749507;80;20958;-74
2021/05/14 05:28:32;;;;;;;13.85;4.90;;;;;;;24.46;50.03;100195.45;1749396;82;20905;-75
2021/05/14 05:31:00;;;;;;;13.50;4.95;;;;;;;24.63;49.65;100194.67;1749559;82;20998;-73
2021/05/14 05:33:28;;;;;;;11.95;4.20;;;;;;;24.82;48.72;100191.31;1749474;82;21762;-74
2021/05/14 05:35:55;;;;;;;7.03;3.87;;;;;;;24.88;48.21;100190.53;1749332;82;20953;-75
2021/05/14 05:38:24;;;;;;;15.93;4.67;;;;;;;24.99;47.92;100194.01;1749436;80;21534;-73
2021/05/14 05:40:51;;;;;;;7.22;4.62;;;;;;;25.06;47.39;100197.22;1749335;82;21009;-75
2021/05/14 05:43:18;;;;;;;8.50;4.00;;;;;;;25.01;47.23;100195.98;1749418;80;20895;-76
2021/05/14 05:45:46;;;;;;;7.92;3.92;;;;;;;24.97;47.64;100195.23;1749478;82;21037;-75
2021/05/14 05:48:14;;;;;;;10.85;4.17;;;;;;;25.06;47.50;100188.69;1749398;82;21474;-75
2021/05/14 05:50:41;;;;;;;9.95;4.65;;;;;;;25.25;48.04;100189.84;1749453;82;21009;-74
2021/05/14 05:53:08;;;;;;;9.40;4.65;;;;;;;25.61;47.08;100184.23;1749296;82;20930;-74
2021/05/14 05:55:35;;;;;;;10.20;4.42;;;;;;;25.84;46.30;100180.36;1749384;82;20878;-75
2021/05/14 05:58:13;;;;;;;7.75;4.05;;;;;;;26.08;45.66;100187.55;1749341;82;21134;-73
2021/05/14 06:00:41;;;;;;;6.85;3.83;;;;;;;26.18;45.36;100182.09;1749343;80;21069;-73
2021/05/14 06:03:10;;;;;;;8.70;3.37;;;;;;;26.35;44.62;100197.33;1749498;82;20887;-75
2021/05/14 06:05:37;;;;;;;9.50;3.40;;;;;;;26.39;44.50;100195.03;1749171;81;20938;-74
2021/05/14 06:08:04;;;;;;;8.73;4.42;;;;;;;26.46;44.55;100204.77;1749542;82;20986;-75
2021/05/14 06:10:31;;;;;;;9.40;4.28;;;;;;;26.59;44.23;100203.98;1749538;80;21640;-75
2021/05/14 06:12:58;;;;;;;8.60;4.85;;;;;;;26.70;44.12;100203.85;1749593;82;20980;-74
2021/05/14 06:15:25;;;;;;;8.68;4.53;;;;;;;26.80;44.14;100200.75;1749676;82;20847;-74
2021/05/14 06:17:52;;;;;;;10.50;4.53;;;;;;;26.79;43.34;100191.86;1749519;80;20973;-72
2021/05/14 06:20:21;;;;;;;11.05;5.20;;;;;;;26.66;44.17;100196.73;1749483;80;20891;-73
2021/05/14 06:22:47;;;;;;;7.33;4.47;;;;;;;26.71;44.27;100201.48;1749297;82;21105;-72
2021/05/14 06:25:14;;;;;;;10.72;4.70;;;;;;;26.83;43.88;100198.98;1749466;81;20969;-71
2021/05/14 06:27:41;;;;;;;8.33;4.45;;;;;;;26.91;43.43;100196.61;1749402;82;20969;-72
2021/05/14 06:30:10;;;;;;;15.68;5.78;;;;;;;27.00;43.42;100191.30;1749537;82;20954;-72
2021/05/14 06:32:37;;;;;;;9.08;5.15;;;;;;;27.18;43.28;100181.21;1749378;82;20859;-72
2021/05/14 06:35:06;;;;;;;9.65;4.65;;;;;;;27.48;42.91;100182.38;1749425;80;21086;-73
2021/05/14 06:37:37;;;;;;;11.30;5.08;;;;;;;27.68;42.25;100182.28;1749308;82;20958;-73
2021/05/14 06:40:04;;;;;;;11.40;5.95;;;;;;;27.85;42.12;100177.75;1749333;80;20966;-72
2021/05/14 06:42:31;;;;;;;8.38;4.80;;;;;;;28.06;42.27;100177.42;1749350;81;21073;-71
2021/05/14 06:44:58;;;;;;;11.35;5.67;;;;;;;28.25;41.62;100184.23;1749429;80;20919;-73
2021/05/14 06:47:25;;;;;;;12.78;4.97;;;;;;;28.48;40.88;100179.10;1749443;80;21518;-72
2021/05/14 06:49:53;;;;;;;8.98;4.42;;;;;;;28.80;40.95;100176.84;1749443;82;21088;-71
2021/05/14 06:52:20;;;;;;;13.30;4.85;;;;;;;29.11;41.30;100170.52;1749583;80;20906;-71
2021/05/14 06:54:46;;;;;;;7.78;4.70;;;;;;;29.27;40.13;100173.95;1749428;82;21379;-70
2021/05/14 06:57:13;;;;;;;8.78;4.70;;;;;;;29.39;39.30;100166.44;1749466;82;20974;-69
2021/05/14 06:59:40;;;;;;;15.28;5.62;;;;;;;29.42;39.66;100166.00;1749390;80;21166;-70
2021/05/14 07:02:07;;;;;;;10.08;5.28;;;;;;;29.47;38.91;100174.23;1749396;82;20887;-68
2021/05/14 07:04:34;;;;;;;10.70;4.40;;;;;;;29.33;38.89;100169.53;1749343;80;20970;-68
2021/05/14 07:07:01;;;;;;;12.43;4.37;;;;;;;29.22;38.84;100174.34;1749649;82;20990;-68
2021/05/14 07:09:28;;;;;;;15.15;5.12;;;;;;;29.09;39.12;100173.44;1749372;82;20898;-66
2021/05/14 07:11:55;;;;;;;12.00;5.47;;;;;;;29.03;39.37;100168.08;1749466;80;21502;-68
2021/05/14 07:14:22;;;;;;;15.48;5.28;;;;;;;29.02;39.17;100172.66;1749394;82;20981;-67
2021/05/14 07:16:50;;;;;;;11.30;5.17;;;;;;;29.09;39.40;100167.21;1749658;82;20866;-67
2021/05/14 07:19:17;;;;;;;10.68;4.53;;;;;;;29.21;39.19;100171.33;1749286;82;21415;-67
2021/05/14 07:21:44;;;;;;;11.68;5.05;;;;;;;29.39;39.73;100174.53;1749098;81;20954;-69
2021/05/14 07:24:11;;;;;;;20.50;6.67;;;;;;;29.46;38.92;100168.02;1735463;82;21023;-67
2021/05/14 07:26:37;;;;;;;13.32;5.12;;;;;;;29.57;38.52;100170.48;1735417;82;20895;-68
2021/05/14 07:29:06;;;;;;;14.98;5.08;;;;;;;29.78;37.75;100171.05;1735476;81;21475;-68
2021/05/14 07:31:33;;;;;;;12.37;5.90;;;;;;;30.05;38.46;100170.13;1735511;82;21462;-68
2021/05/14 07:34:00;;;;;;;13.93;4.70;;;;;;;30.41;37.49;100175.09;1735427;82;20927;-67
2021/05/14 07:36:27;;;;;;;14.35;5.40;;;;;;;30.66;36.64;100180.28;1735320;82;21162;-68
2021/05/14 07:38:54;;;;;;;9.98;5.50;;;;;;;30.81;36.02;100178.45;1735379;82;20998;-68
2021/05/14 07:41:21;;;;;;;22.13;5.83;;;;;;;30.94;35.63;100181.77;1735276;81;20947;-69
2021/05/14 07:43:48;;;;;;;11.33;4.40;;;;;;;31.04;35.81;100179.83;1735439;82;20934;-67
2021/05/14 07:46:15;;;;;;;21.27;5.95;;;;;;;31.19;36.06;100188.79;1735388;81;20906;-68
2021/05/14 07:48:43;;;;;;;11.15;4.55;;;;;;;31.29;35.72;100194.97;1735395;81;21507;-67
2021/05/14 07:51:10;;;;;;;13.32;5.17;;;;;;;31.34;34.80;100191.82;1735365;81;20923;-67
2021/05/14 07:53:37;;;;;;;11.90;3.70;;;;;;;31.47;34.76;100189.94;1735661;82;21368;-68
2021/05/14 07:56:05;;;;;;;5.62;3.90;;;;;;;31.67;34.70;100190.33;1735425;82;21497;-67
2021/05/14 07:58:31;;;;;;;11.12;3.90;;;;;;;31.90;34.30;100185.86;1735496;81;21530;-68
2021/05/14 08:00:58;;;;;;;11.48;3.35;;;;;;;32.09;33.64;100181.09;1735364;82;21050;-67
2021/05/14 08:03:25;;;;;;;9.80;4.62;;;;;;;32.32;33.99;100186.34;1735296;81;20880;-67
2021/05/14 08:05:52;;;;;;;13.00;4.12;;;;;;;32.51;33.82;100178.78;1735655;82;21559;-69
2021/05/14 08:08:20;;;;;;;9.43;4.03;;;;;;;32.58;33.64;100178.64;1735287;82;20938;-67
2021/05/14 08:10:55;;;;;;;11.73;3.77;;;;;;;32.68;33.48;100173.88;1735369;82;20891;-68
2021/05/14 08:13:24;;;;;;;12.98;4.35;;;;;;;32.65;32.99;100173.04;1735502;82;21077;-68
2021/05/14 08:15:50;;;;;;;10.18;3.90;;;;;;;32.56;32.71;100180.78;1734945;82;21455;-66
2021/05/14 08:18:18;;;;;;;6.50;3.20;;;;;;;32.56;33.53;100187.03;1735315;82;21099;-68
2021/05/14 08:20:47;;;;;;;10.63;3.95;;;;;;;32.63;32.81;100189.57;1735394;82;21408;-67
2021/05/14 08:23:19;;;;;;;8.93;3.35;;;;;;;32.75;32.81;100188.10;1735117;81;20926;-71
2021/05/14 08:25:48;;;;;;;12.35;3.72;;;;;;;32.88;32.71;100185.03;1735466;82;21091;-70
2021/05/14 08:28:15;;;;;;;8.80;3.67;;;;;;;33.03;32.40;100182.52;1735000;81;20938;-68
2021/05/14 08:30:43;;;;;;;10.50;4.47;;;;;;;33.16;32.69;100177.84;1735418;81;20947;-66
2021/05/14 08:33:10;;;;;;;15.45;5.28;;;;;;;33.39;32.45;100181.64;1735409;81;20962;-67
2021/05/14 08:35:38;;;;;;;9.48;6.10;;;;;;;33.57;31.95;100183.23;1735494;81;20887;-66
2021/05/14 08:38:05;;;;;;;13.70;7.53;;;;;;;33.57;31.63;100180.51;1735375;82;21648;-68
2021/05/14 08:40:33;;;;;;;7.83;4.28;;;;;;;33.58;32.16;100176.73;1735383;82;20950;-67
2021/05/14 08:43:01;;;;;;;10.55;4.90;;;;;;;33.59;31.97;100173.46;1735345;82;21021;-67
2021/05/14 08:45:28;;;;;;;11.15;6.50;;;;;;;33.47;31.82;100174.12;1735418;81;20918;-68
2021/05/14 08:47:56;;;;;;;13.50;4.15;;;;;;;33.34;31.29;100172.07;1735462;82;20907;-69
2021/05/14 08:50:24;;;;;;;7.58;3.45;;;;;;;33.15;31.40;100172.10;1735292;82;21108;-67
2021/05/14 08:52:51;;;;;;;9.18;4.10;;;;;;;33.04;31.73;100171.14;1735313;81;21010;-68
2021/05/14 08:55:23;;;;;;;8.90;3.27;;;;;;;32.83;31.32;100170.84;1735397;82;21356;-67
2021/05/14 08:57:47;;;;;;;9.93;3.72;;;;;;;32.67;31.32;100177.14;1714517;82;20907;-68
2021/05/14 09:00:16;;;;;;;6.33;2.50;;;;;;;32.44;31.68;100171.34;1735366;82;20958;-67
2021/05/14 09:02:43;;;;;;;6.53;2.42;;;;;;;32.28;31.28;100170.26;1735382;81;21641;-68
2021/05/14 09:05:35;;;;;;;8.35;2.75;;;;;;;32.13;32.24;100166.78;1735413;82;20875;-67
2021/05/14 09:08:03;;;;;;;11.60;2.25;;;;;;;32.15;31.08;100173.30;1735406;81;20950;-68
2021/05/14 09:10:32;;;;;;;4.87;2.22;;;;;;;32.05;31.42;100168.53;1735479;82;20891;-67
2021/05/14 09:12:59;;;;;;;8.88;2.08;;;;;;;32.07;32.23;100165.05;1728185;82;20962;-68
2021/05/14 09:15:33;;;;;;;7.12;1.67;;;;;;;32.27;30.08;100171.34;1706062;84;21356;-67
2021/05/14 09:18:17;;;;;;;5.10;1.85;;;;;;;32.43;29.52;100165.61;1705906;84;20918;-68
2021/05/14 09:21:00;;;;;;;7.35;2.02;;;;;;;32.56;29.78;100169.37;1705906;84;20906;-69
2021/05/14 09:23:32;;;;;;;8.55;1.95;;;;;;;32.67;29.62;100176.33;1711096;82;21395;-69
2021/05/14 09:26:05;;;;;;;5.25;1.65;;;;;;;32.66;29.53;100174.67;1719795;83;20882;-66
2021/05/14 09:28:41;;;;;;;2.80;1.55;;;;;;;32.69;29.28;100176.91;1719403;82;21145;-67
2021/05/14 09:31:19;;;;;;;6.35;1.72;;;;;;;32.67;29.04;100173.61;1719489;83;21331;-67
2021/05/14 09:33:58;;;;;;;4.17;1.55;;;;;;;32.59;29.09;100168.05;1719326;82;21380;-71
2021/05/14 09:36:28;;;;;;;5.10;1.55;;;;;;;32.47;30.33;100166.77;1719480;82;21482;-70
2021/05/14 09:39:09;;;;;;;5.35;1.50;;;;;;;32.51;30.56;100181.50;1718713;83;20988;-71
2021/05/14 09:41:39;;;;;;;4.92;1.30;;;;;;;32.49;30.93;100180.11;1719572;83;21105;-71
2021/05/14 09:44:10;;;;;;;6.10;1.45;;;;;;;32.57;29.49;100187.33;1718572;83;20910;-68
2021/05/14 09:46:41;;;;;;;6.15;1.52;;;;;;;32.40;29.92;100170.20;1719647;83;20863;-71
2021/05/14 09:49:19;;;;;;;4.78;1.10;;;;;;;32.39;30.61;100180.23;1719576;83;21387;-72
2021/05/14 09:51:59;;;;;;;12.63;1.42;;;;;;;32.39;28.06;100178.03;1718542;82;20969;-70
2021/05/14 09:54:30;;;;;;;7.37;1.33;;;;;;;32.34;28.22;100171.99;1719934;83;21026;-71
2021/05/14 09:59:50;;;;;;;7.80;1.57;;;;;;;32.40;27.64;100179.16;1719845;83;20854;-70
2021/05/14 10:02:34;;;;;;;6.62;1.50;;;;;;;32.42;27.07;100183.80;1719550;83;20949;-70
2021/05/14 10:05:01;;;;;;;;;;;;;;;32.42;28.19;100174.30;1722115;83;20981;-70
2021/05/14 10:07:30;;;;;;;6.30;1.30;;;;;;;32.53;28.66;100186.17;1719606;83;21251;-71
2021/05/14 10:10:01;;;;;;;2.98;0.98;;;;;;;32.59;28.61;100183.83;1719527;83;20914;-69
2021/05/14 10:12:28;;;;;;;3.42;1.00;;;;;;;32.60;28.65;100176.50;1719750;83;21000;-72
2021/05/14 10:14:59;;;;;;;6.03;1.70;;;;;;;32.63;27.69;100180.88;1719544;83;20930;-70
2021/05/14 10:17:26;;;;;;;3.60;1.75;;;;;;;32.76;28.78;100173.47;1719643;82;20933;-69
2021/05/14 10:19:54;;;;;;;3.45;1.60;;;;;;;32.97;28.21;100178.12;1719644;83;21446;-70
2021/05/14 10:22:29;;;;;;;2.33;0.85;;;;;;;32.99;27.84;100176.48;1719483;83;20989;-69
2021/05/14 10:24:59;;;;;;;3.47;0.95;;;;;;;33.01;27.88;100177.88;1719617;83;20909;-70
2021/05/14 10:27:29;;;;;;;5.90;1.32;;;;;;;33.02;27.67;100175.46;1719596;83;20921;-70
2021/05/14 10:29:59;;;;;;;7.12;1.72;;;;;;;32.94;27.96;100179.96;1717634;83;20941;-70
2021/05/14 10:32:49;;;;;;;3.05;1.15;;;;;;;32.77;27.88;100175.95;1719556;83;21071;-70
2021/05/14 10:35:19;;;;;;;5.12;1.10;;;;;;;32.49;27.53;100170.06;1719616;82;21434;-70
2021/05/14 10:38:05;;;;;;;9.50;1.50;;;;;;;32.24;27.37;100173.72;1719644;83;21351;-70
2021/05/14 10:40:38;;;;;;;4.78;1.05;;;;;;;32.07;27.52;100167.76;1719581;83;21514;-70
2021/05/14 10:43:19;;;;;;;8.05;1.72;;;;;;;31.92;26.60;100175.05;1719730;83;20946;-69
2021/05/14 10:46:01;;;;;;;3.20;1.90;;;;;;;31.73;26.52;100186.66;1694457;83;21430;-70
2021/05/14 10:48:28;;;;;;;5.00;2.37;;;;;;;31.60;26.90;100186.95;1673093;84;20944;-69
2021/05/14 10:51:01;;;;;;;8.63;1.52;;;;;;;31.39;26.70;100181.61;1694163;84;20957;-69
2021/05/14 10:53:37;;;;;;;;;;;;;;;31.09;26.85;100173.70;1696688;84;20933;-70
2021/05/14 10:56:15;;;;;;;5.58;2.05;;;;;;;30.93;26.60;100177.97;1693978;83;20467;-70
2021/05/14 10:58:50;;;;;;;8.55;1.22;;;;;;;30.81;26.92;100177.11;1694161;84;21079;-70
2021/05/14 11:01:34;;;;;;;4.87;1.27;;;;;;;30.70;26.94;100170.62;1694060;83;20901;-70
2021/05/14 11:04:04;;;;;;;;;;;;;;;30.62;27.64;100180.48;1696844;83;21152;-69
2021/05/14 11:06:48;;;;;;;4.17;1.52;;;;;;;30.48;26.79;100178.51;1690819;84;20235;-70
2021/05/14 11:09:16;;;;;;;4.97;1.30;;;;;;;30.40;28.03;100176.98;1694228;84;20973;-70
2021/05/14 11:12:06;;;;;;;9.18;1.50;;;;;;;30.46;27.00;100173.35;1694103;83;21016;-71
2021/05/14 11:14:43;;;;;;;11.05;3.90;;;;;;;30.48;26.86;100169.03;1694264;84;21426;-69
2021/05/14 11:17:15;;;;;;;4.92;1.12;;;;;;;30.46;26.83;100167.94;1694400;84;21104;-69
2021/05/14 11:19:53;;;;;;;5.22;1.15;;;;;;;30.46;26.10;100173.86;1694143;83;21125;-71
2021/05/14 11:22:26;;;;;;;6.05;1.10;;;;;;;30.46;26.19;100170.64;1694204;84;20905;-69
2021/05/14 11:25:14;;;;;;;;;;;;;;;30.47;27.15;100161.45;1696836;83;21430;-70
2021/05/14 11:27:45;;;;;;;4.75;0.95;;;;;;;30.47;25.87;100163.34;1718630;83;20160;-70
2021/05/14 11:30:15;;;;;;;3.70;1.30;;;;;;;30.33;26.01;100162.75;1718728;82;20874;-69
2021/05/14 11:32:48;;;;;;;4.78;3.12;;;;;;;30.14;26.31;100159.27;1718692;82;20981;-69
2021/05/14 11:35:23;;;;;;;2.20;0.88;;;;;;;30.14;26.31;100159.27;1718939;82;20946;-69